»·PEaware :: N971KV KBUR-KLAS

N971KV :: KBUR-KLAS

FLIGHT INFORMATION

Flight Status: Arrived
Operator: Privately registered:
United States
More flights under this callsign
Pilot: Konstantinos V. (22343)
Aircraft: BEECH AIRCRAFT BARON
(BE58)
More flights by this aircraft type
Origin: KBUR Bob Hope-Burbank
United States
Destination: KLAS McCarran Intl
United States
More flights between these airports :: More routes between these airports
Route: +VNY3 DAG CRESO4
File this flight plan on PilotEdge
Remarks: I-5 RATING
Altitude:
(Current/Filed)
11,000ft
Speed:
(Current/Filed)
170kts
Departed: 01-Feb-19 08:34 AM
Arrived: 01-Feb-19 09:57 AM
Distance/Time
Traveled:
193nm/1:23
Distance/Time
To Go:
Arrived

Flight Plot

Page will automatically refresh every two minutes.

Flight plan parsing failed; only flown route is shown


Map Options




Map Legend


Flown Route
Filed Route
Departure Airport
Arrival Airport
Navaid (VOR, NDB)
Fix

Horizontal Profiles

Position Reports

Time Latitude Longitude Heading Altitude Ground
Speed
01-Feb-19 08:18 34.196335 -118.367563 358 780ft 0kts
01-Feb-19 08:19 34.196335 -118.367563 358 780ft 0kts
01-Feb-19 08:20 34.196335 -118.367563 358 780ft 0kts
01-Feb-19 08:21 34.196335 -118.367563 358 780ft 0kts
01-Feb-19 08:22 34.196335 -118.367563 358 780ft 0kts
01-Feb-19 08:23 34.196335 -118.367563 358 780ft 0kts
01-Feb-19 08:24 34.196335 -118.367563 358 780ft 0kts
01-Feb-19 08:25 34.196335 -118.367563 358 780ft 0kts
01-Feb-19 08:26 34.196335 -118.367563 358 780ft 0kts
01-Feb-19 08:27 34.196335 -118.367563 358 780ft 0kts
01-Feb-19 08:28 34.196335 -118.367563 358 780ft 0kts
01-Feb-19 08:29 34.196562 -118.367617 71 780ft 1kts
01-Feb-19 08:30 34.196915 -118.367302 270 780ft 8kts
01-Feb-19 08:31 34.197083 -118.369026 324 780ft 0kts
01-Feb-19 08:32 34.197940 -118.367689 90 780ft 35kts
01-Feb-19 08:33 34.185403 -118.334574 169 1655ft 160kts
01-Feb-19 08:34 34.151861 -118.364214 225 3345ft 161kts
01-Feb-19 08:35 34.129353 -118.407627 295 4490ft 174kts
01-Feb-19 08:36 34.170521 -118.418050 2 5474ft 161kts
01-Feb-19 08:37 34.215029 -118.416800 2 6796ft 154kts
01-Feb-19 08:38 34.245191 -118.416173 2 7845ft 147kts
01-Feb-19 08:39 34.281975 -118.415735 2 9224ft 136kts
01-Feb-19 08:40 34.309695 -118.415644 2 10345ft 125kts
01-Feb-19 08:41 34.344594 -118.415466 2 11019ft 158kts
01-Feb-19 08:42 34.392904 -118.414619 2 11016ft 192kts
01-Feb-19 08:43 34.435614 -118.400420 67 11097ft 185kts
01-Feb-19 08:44 34.454492 -118.342229 52 11097ft 191kts
01-Feb-19 08:45 34.488674 -118.290961 53 11010ft 195kts
01-Feb-19 08:46 34.511030 -118.255862 54 10999ft 192kts
01-Feb-19 08:47 34.536264 -118.215650 54 10962ft 191kts
01-Feb-19 08:48 34.567582 -118.165540 54 10948ft 190kts
01-Feb-19 08:49 34.599424 -118.114466 54 10933ft 188kts
01-Feb-19 08:50 34.630135 -118.063589 71 10887ft 187kts
01-Feb-19 08:51 34.637804 -118.002032 83 10917ft 185kts
01-Feb-19 08:52 34.644592 -117.940273 83 10936ft 184kts
01-Feb-19 08:53 34.649947 -117.891132 84 10943ft 184kts
01-Feb-19 08:54 34.656886 -117.829070 84 10955ft 185kts
01-Feb-19 08:55 34.663620 -117.767142 82 10963ft 185kts
01-Feb-19 08:56 34.678558 -117.706768 74 10970ft 186kts
01-Feb-19 08:57 34.693735 -117.647564 74 10977ft 187kts
01-Feb-19 08:58 34.697746 -117.631890 74 10979ft 187kts
01-Feb-19 08:59 34.713419 -117.571384 74 10981ft 188kts
01-Feb-19 09:00 34.728920 -117.510628 74 10981ft 188kts
01-Feb-19 09:01 34.744296 -117.450192 74 10981ft 188kts
01-Feb-19 09:02 34.759821 -117.389024 74 10981ft 189kts
01-Feb-19 09:03 34.775261 -117.328065 74 10983ft 188kts
01-Feb-19 09:04 34.790458 -117.267771 73 11006ft 187kts
01-Feb-19 09:05 34.805711 -117.207367 74 11012ft 186kts
01-Feb-19 09:06 34.820985 -117.146817 74 11011ft 188kts
01-Feb-19 09:07 34.835776 -117.087831 74 11015ft 189kts
01-Feb-19 09:08 34.851190 -117.026335 75 11017ft 189kts
01-Feb-19 09:09 34.866476 -116.965107 76 11017ft 190kts
01-Feb-19 09:10 34.881880 -116.903267 77 11017ft 190kts
01-Feb-19 09:11 34.889330 -116.873667 77 11018ft 190kts
01-Feb-19 09:12 34.904764 -116.811938 78 11018ft 190kts
01-Feb-19 09:13 34.920040 -116.750332 78 11016ft 188kts
01-Feb-19 09:14 34.935113 -116.689289 78 11017ft 188kts
01-Feb-19 09:15 34.950176 -116.628146 78 11004ft 189kts
01-Feb-19 09:16 34.967278 -116.567332 66 11024ft 192kts
01-Feb-19 09:17 34.992989 -116.509472 65 11007ft 194kts
01-Feb-19 09:18 35.013138 -116.464110 65 11003ft 195kts
01-Feb-19 09:19 35.039013 -116.405884 65 10990ft 194kts
01-Feb-19 09:20 35.064342 -116.348640 65 10998ft 190kts
01-Feb-19 09:21 35.089337 -116.292065 65 11000ft 189kts
01-Feb-19 09:22 35.113557 -116.237169 65 11000ft 189kts
01-Feb-19 09:23 35.138371 -116.180838 65 10999ft 189kts
01-Feb-19 09:24 35.163267 -116.124229 65 11000ft 189kts
01-Feb-19 09:25 35.185844 -116.072810 65 11000ft 189kts
01-Feb-19 09:26 35.210627 -116.016278 65 11000ft 189kts
01-Feb-19 09:27 35.235371 -115.959741 65 11000ft 189kts
01-Feb-19 09:28 35.260195 -115.902927 65 11000ft 189kts
01-Feb-19 09:30 35.278223 -115.862006 66 11006ft 189kts
01-Feb-19 09:31 35.302423 -115.806714 66 11013ft 190kts
01-Feb-19 09:32 35.333604 -115.756429 51 11016ft 195kts
01-Feb-19 09:33 35.370162 -115.707891 51 11022ft 195kts
01-Feb-19 09:34 35.407045 -115.658666 51 11029ft 196kts
01-Feb-19 09:35 35.439108 -115.615809 51 11029ft 197kts
01-Feb-19 09:36 35.472959 -115.570497 51 11029ft 197kts
01-Feb-19 09:37 35.509719 -115.521188 51 10861ft 201kts
01-Feb-19 09:38 35.547571 -115.470409 50 10095ft 203kts
01-Feb-19 09:39 35.579137 -115.428113 51 9954ft 182kts
01-Feb-19 09:40 35.612312 -115.383477 51 10025ft 177kts
01-Feb-19 09:41 35.646834 -115.338324 33 9374ft 189kts
01-Feb-19 09:42 35.692255 -115.318404 21 8673ft 190kts
01-Feb-19 09:43 35.741746 -115.296524 21 7871ft 189kts
01-Feb-19 09:44 35.790347 -115.274927 21 7409ft 180kts
01-Feb-19 09:45 35.837693 -115.253988 21 8350ft 184kts
01-Feb-19 09:46 35.889019 -115.231193 21 8529ft 210kts
01-Feb-19 09:47 35.934383 -115.210945 21 8615ft 212kts
01-Feb-19 09:48 35.988484 -115.186719 21 8321ft 200kts
01-Feb-19 09:48 36.030802 -115.168129 21 7472ft 189kts
01-Feb-19 09:50 36.083637 -115.146049 21 7006ft 148kts
01-Feb-19 09:51 36.120594 -115.123213 31 6447ft 164kts
01-Feb-19 09:52 36.161834 -115.093632 31 5682ft 176kts
01-Feb-19 09:52 36.196264 -115.096454 288 5024ft 180kts
01-Feb-19 09:53 36.170452 -115.133339 179 4768ft 157kts
01-Feb-19 09:55 36.125055 -115.141387 205 3144ft 119kts
01-Feb-19 09:56 36.099556 -115.156366 203 2260ft 93kts
01-Feb-19 09:56 36.089454 -115.162481 227 2184ft 19kts
01-Feb-19 09:57 36.087906 -115.164612 205 2184ft 22kts
01-Feb-19 09:58 36.082652 -115.167972 269 2184ft 16kts
01-Feb-19 09:59 36.081865 -115.170743 287 2184ft 11kts
01-Feb-19 10:00 36.081935 -115.171066 272 2184ft 0kts

Navigation Log

Ident Type
Flight plan parsing failed, navigation log unavailable